Tuesday, May 26, 2015, 7:21 AM EDT

KSBY, Salisbury-wicomico Cty Reg

Location: Salisbury, MD, United States Lat: 38.333
Local Time: 7:21 AM EDT (11:21 GMT) Lon: -75.5
Time Zone: US/Eastern Elev: 52 ft

Show me the last for .
Show Decoded

2015-05-26 06:54 METAR KSBY 261054Z 20004KT 10SM CLR 18/17 A3027 RMK AO2 SLP253 T01830172 =
2015-05-26 05:54 METAR KSBY 260954Z 20004KT 10SM CLR 16/16 A3027 RMK AO2 SLP250 T01610156 =
2015-05-26 04:54 METAR KSBY 260854Z AUTO 21004KT 10SM CLR 16/14 A3025 RMK AO2 SLP245 T01560144
                 53002 =
2015-05-26 03:54 METAR KSBY 260754Z AUTO 00000KT 10SM CLR 16/14 A3025 RMK AO2 SLP244 T01560144 =
2015-05-26 02:54 METAR KSBY 260654Z AUTO 18004KT 10SM CLR 16/14 A3024 =
2015-05-26 01:54 METAR KSBY 260554Z AUTO 00000KT 10SM CLR 16/14 A3024 RMK AO2 SLP243 T01610144
                 10217 20161 58009 =
2015-05-26 00:54 METAR KSBY 260454Z AUTO 17005KT 10SM CLR 17/14 A3025 RMK AO2 SLP246 T01720144
                 402720139 =
2015-05-25 23:54 METAR KSBY 260354Z AUTO 18007KT 10SM CLR 18/14 A3026 RMK AO2 SLP249 T01830144 =
2015-05-25 22:54 METAR KSBY 260254Z AUTO 17007KT 10SM CLR 18/14 A3027 RMK AO2 SLP252 T01830139
                 53004 =
2015-05-25 21:54 METAR KSBY 260154Z AUTO 18009KT 10SM CLR 19/13 A3027 RMK AO2 SLP251 T01890133 =
2015-05-25 20:54 METAR KSBY 260054Z 17009KT 10SM CLR 20/12 A3025 RMK AO2 SLP246 T02000122 =
2015-05-25 19:54 METAR KSBY 252354Z 16008KT 10SM CLR 22/12 A3026 RMK AO2 SLP248 T02170122 10272
                 20217 50000 =
2015-05-25 18:54 METAR KSBY 252254Z 18010G21KT 10SM CLR 24/12 A3026 RMK AO2 SLP249 T02390117 =
2015-05-25 17:54 METAR KSBY 252154Z 17010KT 10SM CLR 25/14 A3026 RMK AO2 SLP249 T02500144 =
2015-05-25 16:54 METAR KSBY 252054Z AUTO 20015G22KT 10SM FEW002 27/14 A3026 RMK AO2 SLP247
                 T02670139 56006 =
2015-05-25 15:54 METAR KSBY 251954Z AUTO 18011KT 10SM CLR 27/15 A3026 RMK AO2 SLP248 T02720150 =
2015-05-25 14:54 METAR KSBY 251854Z AUTO 20014G21KT 10SM CLR 27/13 A3027 RMK AO2 SLP254 T02670133
                 =
2015-05-25 13:54 METAR KSBY 251754Z 20015G22KT 10SM FEW049 27/14 A3029 RMK AO2 SLP259 T02670139
                 10272 20194 58010 =
2015-05-25 12:54 METAR KSBY 251654Z 21018G22KT 10SM CLR 27/14 A3031 RMK AO2 SLP264 T02670144 =
2015-05-25 11:54 METAR KSBY 251554Z 21013G18KT 10SM CLR 26/14 A3032 RMK AO2 SLP267 T02560144 =
2015-05-25 10:54 METAR KSBY 251454Z 22012KT 10SM CLR 24/14 A3032 RMK AO2 SLP269 T02440144 50000 =
2015-05-25 09:54 METAR KSBY 251354Z 25012G17KT 10SM CLR 24/16 A3033 =
2015-05-25 08:54 METAR KSBY 251254Z 24010G19KT 10SM CLR 23/16 A3033 RMK AO2 SLP273 T02280156 =
2015-05-25 07:54 METAR KSBY 251154Z 21008KT 10SM CLR 19/16 A3032 =

Support USWX by starting your Amazon purchase here.